createdAt,value
2022-09-13T00:00:27.542Z,15.99
2022-09-13T00:01:27.617Z,15.85
2022-09-13T00:02:27.685Z,15.92
2022-09-13T00:03:27.697Z,15.85
2022-09-13T00:04:27.731Z,15.78
2022-09-13T00:05:27.781Z,15.72
2022-09-13T00:06:27.833Z,15.72
2022-09-13T00:07:27.904Z,15.72
2022-09-13T00:08:27.932Z,15.72
2022-09-13T00:09:27.981Z,15.63
2022-09-13T00:10:28.064Z,15.60
2022-09-13T00:11:28.113Z,15.70
2022-09-13T00:12:28.159Z,15.68
2022-09-13T00:13:28.179Z,15.68
2022-09-13T00:14:28.227Z,15.67
2022-09-13T00:15:28.280Z,15.70
2022-09-13T00:16:28.353Z,15.74
2022-09-13T00:17:28.409Z,15.70
2022-09-13T00:18:28.431Z,15.68
2022-09-13T00:19:28.476Z,15.72
2022-09-13T00:20:28.528Z,15.78
2022-09-13T00:21:28.574Z,15.75
2022-09-13T00:22:28.654Z,15.70
2022-09-13T00:23:28.703Z,15.68
2022-09-13T00:24:28.734Z,15.68
2022-09-13T00:25:28.776Z,15.68
2022-09-13T00:26:28.829Z,15.75
2022-09-13T00:27:28.875Z,15.82
2022-09-13T00:28:28.954Z,15.82
2022-09-13T00:29:28.997Z,15.72
2022-09-13T00:30:29.027Z,15.68
2022-09-13T00:31:29.155Z,15.70
2022-09-13T00:32:29.124Z,15.76
2022-09-13T00:33:29.173Z,15.66
2022-09-13T00:34:29.254Z,15.72
2022-09-13T00:35:29.297Z,15.79
2022-09-13T00:36:29.323Z,15.67
2022-09-13T00:37:29.368Z,15.63
2022-09-13T00:38:29.422Z,15.59
2022-09-13T00:39:29.475Z,15.66
2022-09-13T00:40:29.618Z,15.54
2022-09-13T00:41:29.571Z,15.54
2022-09-13T00:42:29.643Z,15.60
2022-09-13T00:43:29.667Z,15.60
2022-09-13T00:44:29.742Z,15.46
2022-09-13T00:45:29.780Z,15.60
2022-09-13T00:46:29.820Z,15.56
2022-09-13T00:47:29.868Z,15.54
2022-09-13T00:48:29.945Z,15.51
2022-09-13T00:49:29.965Z,15.54
2022-09-13T00:50:30.021Z,15.43
2022-09-13T00:51:30.066Z,15.46
2022-09-13T00:52:30.140Z,15.52
2022-09-13T00:53:30.194Z,15.51
2022-09-13T00:54:30.213Z,15.52
2022-09-13T00:55:30.386Z,15.48
2022-09-13T00:56:30.315Z,15.54
2022-09-13T00:57:30.361Z,15.54
2022-09-13T00:58:30.437Z,15.56
2022-09-13T00:59:30.467Z,15.48
2022-09-13T01:00:30.516Z,15.39
2022-09-13T01:01:30.565Z,15.39
2022-09-13T01:02:30.640Z,15.38
2022-09-13T01:03:30.695Z,15.43
2022-09-13T01:04:30.712Z,15.36
2022-09-13T01:05:30.759Z,15.36
2022-09-13T01:06:30.814Z,15.39
2022-09-13T01:07:30.861Z,15.38
2022-09-13T01:08:30.933Z,15.36
2022-09-13T01:09:30.956Z,15.48
2022-09-13T01:10:31.015Z,15.49
2022-09-13T01:11:31.056Z,15.41
2022-09-13T01:12:31.133Z,15.54
2022-09-13T01:13:31.154Z,15.48
2022-09-13T01:14:31.228Z,15.46
2022-09-13T01:15:31.287Z,15.48
2022-09-13T01:16:31.336Z,15.48
2022-09-13T01:17:31.358Z,15.51
2022-09-13T01:18:31.403Z,15.54
2022-09-13T01:19:31.456Z,15.45
2022-09-13T01:20:31.531Z,15.46
2022-09-13T01:21:31.577Z,15.51
2022-09-13T01:22:31.601Z,15.45
2022-09-13T01:23:31.648Z,15.41
2022-09-13T01:24:31.721Z,15.31
2022-09-13T01:25:31.755Z,15.26
2022-09-13T01:26:31.830Z,15.19
2022-09-13T01:27:31.850Z,15.24
2022-09-13T01:28:31.902Z,15.20
2022-09-13T01:29:31.950Z,15.15
2022-09-13T01:30:31.997Z,15.17
2022-09-13T01:31:32.124Z,15.12
2022-09-13T01:32:32.100Z,15.05
2022-09-13T01:33:32.146Z,15.12
2022-09-13T01:34:32.203Z,15.13
2022-09-13T01:35:32.268Z,15.11
2022-09-13T01:36:53.322Z,15.11
2022-09-13T01:37:32.351Z,15.08
2022-09-13T01:38:32.394Z,15.06
2022-09-13T01:39:32.443Z,15.06
2022-09-13T01:40:32.531Z,15.06
2022-09-13T01:41:32.543Z,15.08
2022-09-13T01:42:32.604Z,15.06
2022-09-13T01:43:32.640Z,15.09
2022-09-13T01:44:32.689Z,15.05
2022-09-13T01:45:32.824Z,15.01
2022-09-13T01:46:32.789Z,15.03
2022-09-13T01:47:32.843Z,14.98
2022-09-13T01:48:32.887Z,14.99
2022-09-13T01:49:32.939Z,14.99
2022-09-13T01:50:33.008Z,14.91
2022-09-13T01:51:33.072Z,14.99
2022-09-13T01:52:33.088Z,14.99
2022-09-13T01:53:33.140Z,14.95
2022-09-13T01:54:33.184Z,14.99
2022-09-13T01:55:33.237Z,14.95
2022-09-13T01:56:33.305Z,15.05
2022-09-13T01:57:33.331Z,14.99
2022-09-13T01:58:33.406Z,15.02
2022-09-13T01:59:33.435Z,15.02
2022-09-13T02:00:33.483Z,14.93
2022-09-13T02:01:33.588Z,14.99
2022-09-13T02:02:33.644Z,15.06
2022-09-13T02:03:33.626Z,15.01
2022-09-13T02:04:33.674Z,15.03
2022-09-13T02:05:33.723Z,15.02
2022-09-13T02:06:33.772Z,15.01
2022-09-13T02:07:33.853Z,14.93
2022-09-13T02:08:33.872Z,15.03
2022-09-13T02:09:33.922Z,15.01
2022-09-13T02:10:33.995Z,15.02
2022-09-13T02:11:34.024Z,14.95
2022-09-13T02:12:34.073Z,14.98
2022-09-13T02:13:34.149Z,14.95
2022-09-13T02:14:34.168Z,14.98
2022-09-13T02:15:34.219Z,14.90
2022-09-13T02:16:34.333Z,14.88
2022-09-13T02:17:34.314Z,14.83
2022-09-13T02:18:34.400Z,14.80
2022-09-13T02:19:34.416Z,14.80
2022-09-13T02:20:34.477Z,14.80
2022-09-13T02:21:34.523Z,14.71
2022-09-13T02:22:34.593Z,14.69
2022-09-13T02:23:34.615Z,14.74
2022-09-13T02:24:34.666Z,14.75
2022-09-13T02:25:34.711Z,14.69
2022-09-13T02:26:34.786Z,14.69
2022-09-13T02:27:34.813Z,14.69
2022-09-13T02:28:34.861Z,14.68
2022-09-13T02:29:34.912Z,14.75
2022-09-13T02:30:34.989Z,14.74
2022-09-13T02:31:35.049Z,14.67
2022-09-13T02:32:35.058Z,14.72
2022-09-13T02:33:35.106Z,14.78
2022-09-13T02:34:35.160Z,14.65
2022-09-13T02:35:35.230Z,14.60
2022-09-13T02:36:35.256Z,14.65
2022-09-13T02:37:35.310Z,14.65
2022-09-13T02:38:35.378Z,14.61
2022-09-13T02:39:35.402Z,14.57
2022-09-13T02:40:35.450Z,14.57
2022-09-13T02:41:35.502Z,14.53
2022-09-13T02:42:35.544Z,14.56
2022-09-13T02:43:35.623Z,14.61
2022-09-13T02:44:35.649Z,14.54
2022-09-13T02:45:35.736Z,14.52
2022-09-13T02:46:35.747Z,14.50
2022-09-13T02:47:35.825Z,14.53
2022-09-13T02:48:37.484Z,14.47
2022-09-13T02:49:35.892Z,14.53
2022-09-13T02:50:35.962Z,14.52
2022-09-13T02:51:35.990Z,14.56
2022-09-13T02:52:36.064Z,14.50
2022-09-13T02:53:36.088Z,14.50
2022-09-13T02:54:36.139Z,14.47
2022-09-13T02:55:36.213Z,14.46
2022-09-13T02:56:36.237Z,14.38
2022-09-13T02:57:36.285Z,14.42
2022-09-13T02:58:36.333Z,14.37
2022-09-13T02:59:36.385Z,14.34
2022-09-13T03:00:36.460Z,14.25
2022-09-13T03:01:36.557Z,14.31
2022-09-13T03:02:36.592Z,14.31
2022-09-13T03:03:36.579Z,14.28
2022-09-13T03:04:36.639Z,14.27
2022-09-13T03:05:36.702Z,14.28
2022-09-13T03:06:36.750Z,14.27
2022-09-13T03:07:36.778Z,14.32
2022-09-13T03:08:36.905Z,14.29
2022-09-13T03:09:36.872Z,14.32
2022-09-13T03:10:36.925Z,14.19
2022-09-13T03:11:36.999Z,14.21
2022-09-13T03:12:37.046Z,14.31
2022-09-13T03:13:37.078Z,14.27
2022-09-13T03:14:37.145Z,14.24
2022-09-13T03:15:37.179Z,14.24
2022-09-13T03:16:37.277Z,14.25
2022-09-13T03:17:37.291Z,14.25
2022-09-13T03:18:37.341Z,14.28
2022-09-13T03:19:37.370Z,14.19
2022-09-13T03:20:37.414Z,14.17
2022-09-13T03:21:37.468Z,14.14
2022-09-13T03:22:37.550Z,14.25
2022-09-13T03:23:37.565Z,14.17
2022-09-13T03:24:37.613Z,14.21
2022-09-13T03:25:37.665Z,14.27
2022-09-13T03:26:37.712Z,14.14
2022-09-13T03:27:37.789Z,14.19
2022-09-13T03:28:37.895Z,14.09
2022-09-13T03:29:37.856Z,14.12
2022-09-13T03:30:37.907Z,14.12
2022-09-13T03:31:37.980Z,13.99
2022-09-13T03:32:38.045Z,13.96
2022-09-13T03:33:38.051Z,14.01
2022-09-13T03:34:38.103Z,13.91
2022-09-13T03:35:38.156Z,13.92
2022-09-13T03:36:38.206Z,13.94
2022-09-13T03:37:38.270Z,13.99
2022-09-13T03:38:38.325Z,13.99
2022-09-13T03:39:38.375Z,13.99
2022-09-13T03:40:38.397Z,13.98
2022-09-13T03:41:38.444Z,13.99
2022-09-13T03:42:38.530Z,14.01
2022-09-13T03:43:38.543Z,13.94
2022-09-13T03:44:38.591Z,13.94
2022-09-13T03:45:38.641Z,13.88
2022-09-13T03:46:59.719Z,13.84
2022-09-13T03:47:38.764Z,13.84
2022-09-13T03:48:38.793Z,13.83
2022-09-13T03:49:38.843Z,13.88
2022-09-13T03:50:38.882Z,13.81
2022-09-13T03:51:38.939Z,13.81
2022-09-13T03:52:41.276Z,13.83
2022-09-13T03:53:39.035Z,13.89
2022-09-13T03:54:39.083Z,13.84
2022-09-13T03:55:39.139Z,13.96
2022-09-13T03:56:39.181Z,13.96
2022-09-13T03:57:39.258Z,13.94
2022-09-13T03:58:39.277Z,13.88
2022-09-13T03:59:39.325Z,13.88
2022-09-13T04:00:39.380Z,13.89
2022-09-13T04:01:39.452Z,13.95
2022-09-13T04:02:39.478Z,13.88
2022-09-13T04:03:39.561Z,13.89
2022-09-13T04:04:39.568Z,13.88
2022-09-13T04:06:00.677Z,13.92
2022-09-13T04:06:39.669Z,13.88
2022-09-13T04:07:39.718Z,13.80
2022-09-13T04:08:39.774Z,13.87
2022-09-13T04:09:39.818Z,13.76
2022-09-13T04:10:39.892Z,13.71
2022-09-13T04:11:39.916Z,13.73
2022-09-13T04:12:39.966Z,13.70
2022-09-13T04:13:40.034Z,13.69
2022-09-13T04:14:40.057Z,13.69
2022-09-13T04:15:40.115Z,13.62
2022-09-13T04:16:40.211Z,13.67
2022-09-13T04:17:40.224Z,13.55
2022-09-13T04:18:40.289Z,13.52
2022-09-13T04:19:40.303Z,13.55
2022-09-13T04:20:40.377Z,13.55
2022-09-13T04:21:40.403Z,13.62
2022-09-13T04:22:40.476Z,13.58
2022-09-13T04:23:40.502Z,13.65
2022-09-13T04:24:40.557Z,13.62
2022-09-13T04:25:40.627Z,13.69
2022-09-13T04:26:40.652Z,13.59
2022-09-13T04:27:40.693Z,13.73
2022-09-13T04:28:40.742Z,13.70
2022-09-13T04:29:40.791Z,13.70
2022-09-13T04:30:42.721Z,13.77
2022-09-13T04:31:40.945Z,13.67
2022-09-13T04:32:40.941Z,13.73
2022-09-13T04:33:40.994Z,13.76
2022-09-13T04:34:41.069Z,13.84
2022-09-13T04:35:41.095Z,13.79
2022-09-13T04:36:41.169Z,13.76
2022-09-13T04:37:42.124Z,13.80
2022-09-13T04:38:41.233Z,13.79
2022-09-13T04:39:41.317Z,13.73
2022-09-13T04:40:41.328Z,13.71
2022-09-13T04:41:41.380Z,13.70
2022-09-13T04:42:41.454Z,13.74
2022-09-13T04:43:41.495Z,13.73
2022-09-13T04:44:41.525Z,13.80
2022-09-13T04:45:41.579Z,13.77
2022-09-13T04:46:41.625Z,13.79
2022-09-13T04:47:42.159Z,13.70
2022-09-13T04:48:41.753Z,13.73
2022-09-13T04:49:41.765Z,13.69
2022-09-13T04:50:41.817Z,13.73
2022-09-13T04:51:41.872Z,13.74
2022-09-13T04:52:41.944Z,13.73
2022-09-13T04:53:41.965Z,13.69
2022-09-13T04:54:42.012Z,13.69
2022-09-13T04:55:42.062Z,13.71
2022-09-13T04:56:42.113Z,13.73
2022-09-13T04:57:42.191Z,13.69
2022-09-13T04:58:42.289Z,13.55
2022-09-13T04:59:42.253Z,13.58
2022-09-13T05:00:42.374Z,13.59
2022-09-13T05:01:42.442Z,13.63
2022-09-13T05:02:42.426Z,13.55
2022-09-13T05:03:42.452Z,13.58
2022-09-13T05:04:42.503Z,13.69
2022-09-13T05:05:42.552Z,13.69
2022-09-13T05:06:42.596Z,13.69
2022-09-13T05:07:42.675Z,13.67
2022-09-13T05:08:42.756Z,13.70
2022-09-13T05:09:42.742Z,13.69
2022-09-13T05:10:42.791Z,13.67
2022-09-13T05:11:42.843Z,13.70
2022-09-13T05:12:42.923Z,13.56
2022-09-13T05:13:42.936Z,13.70
2022-09-13T05:14:42.989Z,13.62
2022-09-13T05:15:43.105Z,13.56
2022-09-13T05:16:43.081Z,13.59
2022-09-13T05:17:43.165Z,13.61
2022-09-13T05:18:49.634Z,13.58
2022-09-13T05:19:43.229Z,13.59
2022-09-13T05:20:43.281Z,13.61
2022-09-13T05:21:43.343Z,13.58
2022-09-13T05:22:43.412Z,13.63
2022-09-13T05:23:43.432Z,13.62
2022-09-13T05:24:43.473Z,13.55
2022-09-13T05:25:43.526Z,13.61
2022-09-13T05:26:43.596Z,13.61
2022-09-13T05:27:43.624Z,13.55
2022-09-13T05:28:43.671Z,13.58
2022-09-13T05:29:43.727Z,13.58
2022-09-13T05:30:43.769Z,13.61
2022-09-13T05:31:43.837Z,13.58
2022-09-13T05:32:43.865Z,13.62
2022-09-13T05:33:43.919Z,13.70
2022-09-13T05:34:43.961Z,13.63
2022-09-13T05:35:44.018Z,13.67
2022-09-13T05:36:44.086Z,13.70
2022-09-13T05:37:44.144Z,13.73
2022-09-13T05:38:44.158Z,13.71
2022-09-13T05:40:07.742Z,13.80
2022-09-13T05:40:44.303Z,13.73
2022-09-13T05:41:44.307Z,13.88
2022-09-13T05:42:44.392Z,13.88
2022-09-13T05:43:44.401Z,13.94
2022-09-13T05:44:44.460Z,13.95
2022-09-13T05:45:44.503Z,13.95
2022-09-13T05:46:44.548Z,13.94
2022-09-13T05:47:44.625Z,13.91
2022-09-13T05:48:44.645Z,14.02
2022-09-13T05:50:08.413Z,14.02
2022-09-13T05:50:57.649Z,13.99
2022-09-13T05:51:44.844Z,14.07
2022-09-13T05:52:44.844Z,14.16
2022-09-13T05:53:44.924Z,14.12
2022-09-13T05:54:44.941Z,14.17
2022-09-13T05:55:44.993Z,14.12
2022-09-13T05:56:45.035Z,14.16
2022-09-13T05:57:45.091Z,14.13
2022-09-13T05:58:45.258Z,14.19
2022-09-13T05:59:45.184Z,14.14
2022-09-13T06:00:45.231Z,14.31
2022-09-13T06:01:45.351Z,14.29
2022-09-13T06:02:45.368Z,14.25
2022-09-13T06:03:45.411Z,14.21
2022-09-13T06:04:45.456Z,14.28
2022-09-13T06:05:45.480Z,14.31
2022-09-13T06:06:45.528Z,14.32
2022-09-13T06:07:45.574Z,14.28
2022-09-13T06:08:45.690Z,14.37
2022-09-13T06:09:45.700Z,14.35
2022-09-13T06:10:45.727Z,14.32
2022-09-13T06:11:45.773Z,14.39
2022-09-13T06:12:45.821Z,14.49
2022-09-13T06:13:45.867Z,14.54
2022-09-13T06:14:45.947Z,14.67
2022-09-13T06:15:45.970Z,14.62
2022-09-13T06:16:46.016Z,14.67
2022-09-13T06:17:46.065Z,14.68
2022-09-13T06:18:46.171Z,14.72
2022-09-13T06:19:46.187Z,14.88
2022-09-13T06:20:46.248Z,15.05
2022-09-13T06:21:46.261Z,15.08
2022-09-13T06:22:46.312Z,15.21
2022-09-13T06:23:46.361Z,15.15
2022-09-13T06:24:46.416Z,15.28
2022-09-13T06:25:46.483Z,15.35
2022-09-13T06:26:46.516Z,15.43
2022-09-13T06:27:46.585Z,15.48
2022-09-13T06:28:46.612Z,15.56
2022-09-13T06:29:46.663Z,15.57
2022-09-13T06:30:46.709Z,15.60
2022-09-13T06:31:46.778Z,15.68
2022-09-13T06:32:46.828Z,15.70
2022-09-13T06:33:46.857Z,15.68
2022-09-13T06:34:46.903Z,15.72
2022-09-13T06:35:46.955Z,15.81
2022-09-13T06:36:47.035Z,15.93
2022-09-13T06:37:47.053Z,15.93
2022-09-13T06:38:47.108Z,16.04
2022-09-13T06:39:47.181Z,16.03
2022-09-13T06:40:47.204Z,16.14
2022-09-13T06:41:50.696Z,16.15
2022-09-13T06:42:47.305Z,16.27
2022-09-13T06:43:48.180Z,16.38
2022-09-13T06:44:47.706Z,16.60
2022-09-13T06:45:47.507Z,16.67
2022-09-13T06:46:47.552Z,16.67
2022-09-13T06:47:47.576Z,16.77
2022-09-13T06:48:47.601Z,16.95
2022-09-13T06:49:47.651Z,17.32
2022-09-13T06:50:47.706Z,17.84
2022-09-13T06:51:47.751Z,18.31
2022-09-13T06:52:47.825Z,18.77
2022-09-13T06:53:47.847Z,19.33
2022-09-13T06:54:47.922Z,19.84
2022-09-13T06:55:47.954Z,20.02
2022-09-13T06:56:48.001Z,20.64
2022-09-13T06:57:48.048Z,21.06
2022-09-13T06:58:48.108Z,21.23
2022-09-13T06:59:48.179Z,21.78
2022-09-13T07:00:49.400Z,22.13
2022-09-13T07:01:48.356Z,22.07
2022-09-13T07:02:48.316Z,22.14
2022-09-13T07:03:48.356Z,22.52
2022-09-13T07:04:48.418Z,22.65
2022-09-13T07:05:48.494Z,22.17
2022-09-13T07:06:48.512Z,21.81
2022-09-13T07:07:48.571Z,22.02
2022-09-13T07:08:48.754Z,22.56
2022-09-13T07:09:48.690Z,22.56
2022-09-13T07:10:48.718Z,22.44
2022-09-13T07:11:48.812Z,22.71
2022-09-13T07:12:48.823Z,22.56
2022-09-13T07:13:48.879Z,22.65
2022-09-13T07:14:48.930Z,22.94
2022-09-13T07:15:49.022Z,22.78
2022-09-13T07:16:49.076Z,22.89
2022-09-13T07:17:49.090Z,22.69
2022-09-13T07:18:50.723Z,22.65
2022-09-13T07:20:10.250Z,22.96
2022-09-13T07:21:11.177Z,23.09
2022-09-13T07:21:50.163Z,22.93
2022-09-13T07:22:58.018Z,23.32
2022-09-13T07:23:49.409Z,23.29
2022-09-13T07:24:49.489Z,23.23
2022-09-13T07:25:49.522Z,23.50
2022-09-13T07:26:49.583Z,23.60
2022-09-13T07:27:49.634Z,23.60
2022-09-13T07:28:56.668Z,23.72
2022-09-13T07:38:42.694Z,24.50
2022-09-13T07:39:42.729Z,24.42
2022-09-13T07:40:42.699Z,24.22
2022-09-13T07:41:42.754Z,24.49
2022-09-13T07:42:42.805Z,24.52
2022-09-13T07:43:45.910Z,24.27
2022-09-13T07:44:42.944Z,24.08
2022-09-13T07:45:42.993Z,24.16
2022-09-13T07:46:43.024Z,23.85
2022-09-13T07:47:43.096Z,23.90
2022-09-13T07:48:43.125Z,23.83
2022-09-13T07:49:43.227Z,23.80
2022-09-13T07:50:43.276Z,24.02
2022-09-13T07:51:43.310Z,24.08
2022-09-13T07:52:43.346Z,24.64
2022-09-13T07:53:43.407Z,24.97
2022-09-13T07:54:43.459Z,24.91
2022-09-13T07:55:43.542Z,24.79
2022-09-13T07:56:43.625Z,24.73
2022-09-13T07:57:43.626Z,25.01
2022-09-13T07:58:43.681Z,24.67
2022-09-13T07:59:43.735Z,24.31
2022-09-13T08:00:43.792Z,24.27
2022-09-13T08:01:44.102Z,24.13
2022-09-13T08:02:43.983Z,24.00
2022-09-13T08:03:43.958Z,24.23
2022-09-13T08:04:44.019Z,24.29
2022-09-13T08:05:44.076Z,24.82
2022-09-13T08:06:44.156Z,25.09
2022-09-13T08:07:44.227Z,25.46
2022-09-13T08:08:44.264Z,25.53
2022-09-13T08:09:44.296Z,25.69
2022-09-13T08:10:47.569Z,25.52
2022-09-13T08:11:44.407Z,25.53
2022-09-13T08:12:44.484Z,25.65
2022-09-13T08:13:44.521Z,25.37
2022-09-13T08:14:44.612Z,25.71
2022-09-13T08:15:44.741Z,25.35
2022-09-13T08:16:44.721Z,25.24
2022-09-13T08:17:44.751Z,25.47
2022-09-13T08:18:44.811Z,25.62
2022-09-13T08:19:44.952Z,25.91
2022-09-13T08:20:44.921Z,25.24
2022-09-13T08:21:44.984Z,25.02
2022-09-13T08:22:45.025Z,25.20
2022-09-13T08:23:45.101Z,25.57
2022-09-13T08:24:45.168Z,25.67
2022-09-13T08:25:45.230Z,25.69
2022-09-13T08:26:47.165Z,25.64
2022-09-13T08:27:45.325Z,25.37
2022-09-13T08:28:45.388Z,25.38
2022-09-13T08:29:45.495Z,24.82
2022-09-13T08:30:45.599Z,24.91
2022-09-13T08:31:45.587Z,25.10
2022-09-13T08:32:45.769Z,25.01
2022-09-13T08:33:46.717Z,25.37
2022-09-13T08:34:45.803Z,25.59
2022-09-13T08:35:45.842Z,25.90
2022-09-13T08:36:45.886Z,25.98
2022-09-13T08:37:46.074Z,25.90
2022-09-13T08:38:46.009Z,25.87
2022-09-13T08:39:46.098Z,26.20
2022-09-13T08:40:46.056Z,26.49
2022-09-13T08:41:46.116Z,26.22
2022-09-13T08:42:46.679Z,26.46
2022-09-13T08:43:46.278Z,26.49
2022-09-13T08:44:46.285Z,26.55
2022-09-13T08:45:46.343Z,26.35
2022-09-13T08:46:46.401Z,26.21
2022-09-13T08:47:46.459Z,25.68
2022-09-13T08:48:46.544Z,25.94
2022-09-13T08:49:46.607Z,25.99
2022-09-13T08:50:46.629Z,26.21
2022-09-13T08:51:46.739Z,26.09
2022-09-13T08:52:46.790Z,26.11
2022-09-13T08:53:46.807Z,26.28
2022-09-13T08:54:46.972Z,26.28
2022-09-13T08:55:46.950Z,26.50
2022-09-13T08:56:47.016Z,26.62
2022-09-13T08:57:47.075Z,26.46
2022-09-13T08:58:47.182Z,25.74
2022-09-13T08:59:47.218Z,25.43
2022-09-13T09:00:47.241Z,25.42
2022-09-13T09:01:47.294Z,25.47
2022-09-13T09:02:47.486Z,25.65
2022-09-13T09:03:47.525Z,25.84
2022-09-13T09:04:47.455Z,25.37
2022-09-13T09:05:47.620Z,25.28
2022-09-13T09:06:47.628Z,24.97
2022-09-13T09:07:47.656Z,25.05
2022-09-13T09:08:47.689Z,25.22
2022-09-13T09:09:47.780Z,25.27
2022-09-13T09:10:47.903Z,25.39
2022-09-13T09:11:47.879Z,25.62
2022-09-13T09:12:47.975Z,25.61
2022-09-13T09:13:48.166Z,25.79
2022-09-13T09:14:48.099Z,26.04
2022-09-13T09:15:48.127Z,25.99
2022-09-13T09:16:48.253Z,26.27
2022-09-13T09:17:48.224Z,26.24
2022-09-13T09:18:48.252Z,26.27
2022-09-13T09:19:48.339Z,26.27
2022-09-13T09:20:48.511Z,26.49
2022-09-13T09:21:48.470Z,26.58
2022-09-13T09:22:48.544Z,26.84
2022-09-13T09:23:48.767Z,26.58
2022-09-13T09:24:48.630Z,26.18
2022-09-13T09:25:48.784Z,26.22
2022-09-13T09:26:48.758Z,26.20
2022-09-13T09:27:48.820Z,26.09
2022-09-13T09:28:48.876Z,25.98
2022-09-13T09:29:48.997Z,26.25
2022-09-13T09:30:48.998Z,26.44
2022-09-13T09:31:49.062Z,26.62
2022-09-13T09:32:49.120Z,26.76
2022-09-13T09:33:49.262Z,26.87
2022-09-13T09:34:49.330Z,26.91
2022-09-13T09:35:49.250Z,26.96
2022-09-13T09:36:49.369Z,26.86
2022-09-13T09:37:49.428Z,26.98
2022-09-13T09:38:49.469Z,27.24
2022-09-13T09:39:49.700Z,27.32
2022-09-13T09:40:49.690Z,27.51
2022-09-13T09:41:49.634Z,27.54
2022-09-13T09:42:49.673Z,27.62
2022-09-13T09:43:49.828Z,27.47
2022-09-13T09:44:49.757Z,27.47
2022-09-13T09:45:49.992Z,27.32
2022-09-13T09:46:49.929Z,27.28
2022-09-13T09:47:49.992Z,26.96
2022-09-13T09:48:50.120Z,26.62
2022-09-13T09:49:50.120Z,26.84
2022-09-13T09:50:50.169Z,26.61
2022-09-13T09:51:50.171Z,26.06
2022-09-13T09:52:50.378Z,26.43
2022-09-13T09:53:50.395Z,25.99
2022-09-13T09:54:50.382Z,25.52
2022-09-13T09:55:50.459Z,25.39
2022-09-13T09:56:50.538Z,25.38
2022-09-13T09:57:50.589Z,25.42
2022-09-13T09:58:50.612Z,25.25
2022-09-13T09:59:50.678Z,25.25
2022-09-13T10:00:52.743Z,25.25
2022-09-13T10:01:51.804Z,24.82
2022-09-13T10:02:50.866Z,24.79
2022-09-13T10:03:50.948Z,24.79
2022-09-13T10:04:51.054Z,24.94
2022-09-13T10:05:51.068Z,24.88
2022-09-13T10:06:51.120Z,24.88
2022-09-13T10:07:53.768Z,24.73
2022-09-13T10:08:57.750Z,24.12
2022-09-13T10:09:51.294Z,24.13
2022-09-13T10:10:51.313Z,24.04
2022-09-13T10:11:51.322Z,24.08
2022-09-13T10:12:51.377Z,24.17
2022-09-13T10:13:51.433Z,24.26
2022-09-13T10:14:52.184Z,24.50
2022-09-13T10:15:52.238Z,24.23
2022-09-13T10:16:52.247Z,24.20
2022-09-13T10:17:52.253Z,24.26
2022-09-13T10:18:57.417Z,24.08
2022-09-13T10:19:51.778Z,24.19
2022-09-13T10:20:52.299Z,24.50
2022-09-13T10:21:51.889Z,24.41
2022-09-13T10:22:51.939Z,24.53
2022-09-13T10:23:52.023Z,24.41
2022-09-13T10:24:52.179Z,24.35
2022-09-13T10:25:52.186Z,24.91
2022-09-13T10:27:10.361Z,25.35
2022-09-13T10:27:52.254Z,25.83
2022-09-13T10:28:52.426Z,26.28
2022-09-13T10:29:52.384Z,26.08
2022-09-13T10:30:52.513Z,25.67
2022-09-13T10:31:52.509Z,25.38
2022-09-13T10:32:52.575Z,25.47
2022-09-13T10:33:52.570Z,24.79
2022-09-13T10:34:55.237Z,24.83
2022-09-13T10:35:53.571Z,24.49
2022-09-13T10:36:53.600Z,24.16
2022-09-13T10:37:52.834Z,24.08
2022-09-13T10:38:52.910Z,24.52
2022-09-13T10:39:52.981Z,24.49
2022-09-13T10:40:52.953Z,24.16
2022-09-13T10:41:53.049Z,24.67
2022-09-13T10:42:53.121Z,25.07
2022-09-13T10:43:57.728Z,25.27
2022-09-13T10:44:53.180Z,24.57
2022-09-13T10:45:53.257Z,24.38
2022-09-13T10:46:53.296Z,24.29
2022-09-13T10:47:56.786Z,24.39
2022-09-13T10:48:53.436Z,24.34
2022-09-13T10:49:53.476Z,24.92
2022-09-13T10:50:56.208Z,25.64
2022-09-13T10:51:53.593Z,26.06
2022-09-13T10:52:53.657Z,25.46
2022-09-13T10:53:53.730Z,24.42
2022-09-13T10:54:53.788Z,24.27
2022-09-13T10:55:53.851Z,24.37
2022-09-13T10:56:53.925Z,24.44
2022-09-13T10:57:53.941Z,25.05
2022-09-13T10:58:53.993Z,25.20
2022-09-13T10:59:54.080Z,24.59
2022-09-13T11:00:54.181Z,24.26
2022-09-13T11:02:08.721Z,24.53
2022-09-13T11:02:54.259Z,25.20
2022-09-13T11:03:54.295Z,25.89
2022-09-13T11:04:54.331Z,25.50
2022-09-13T11:05:54.432Z,25.53
2022-09-13T11:06:57.325Z,25.05
2022-09-13T11:07:54.521Z,24.77
2022-09-13T11:08:54.567Z,24.77
2022-09-13T11:09:54.634Z,24.76
2022-09-13T11:10:54.705Z,24.69
2022-09-13T11:11:54.767Z,24.90
2022-09-13T11:12:54.818Z,25.30
2022-09-13T11:13:54.850Z,25.24
2022-09-13T11:14:54.916Z,25.47
2022-09-13T11:15:54.983Z,25.69
2022-09-13T11:16:55.134Z,26.01
2022-09-13T11:17:55.093Z,25.93
2022-09-13T11:18:55.187Z,25.97
2022-09-13T11:19:57.044Z,25.80
2022-09-13T11:20:55.273Z,25.65
2022-09-13T11:21:55.441Z,25.80
2022-09-13T11:22:55.468Z,25.91
2022-09-13T11:23:55.651Z,25.97
2022-09-13T11:24:55.608Z,25.68
2022-09-13T11:25:56.187Z,25.56
2022-09-13T11:26:55.674Z,25.39
2022-09-13T11:27:55.753Z,25.27
2022-09-13T11:28:55.923Z,25.20
2022-09-13T11:29:55.863Z,25.61
2022-09-13T11:30:55.922Z,25.97
2022-09-13T11:31:56.015Z,26.29
2022-09-13T11:32:56.031Z,26.28
2022-09-13T11:33:56.077Z,26.50
2022-09-13T11:34:56.150Z,26.24
2022-09-13T11:35:56.203Z,26.12
2022-09-13T11:36:56.241Z,25.94
2022-09-13T11:37:56.269Z,26.09
2022-09-13T11:38:56.338Z,25.87
2022-09-13T11:39:56.430Z,25.68
2022-09-13T11:40:56.480Z,25.64
2022-09-13T11:41:57.636Z,25.59
2022-09-13T11:42:56.569Z,25.44
2022-09-13T11:43:56.628Z,25.52
2022-09-13T11:44:56.685Z,25.52
2022-09-13T11:45:56.816Z,25.43
2022-09-13T11:46:56.808Z,25.38
2022-09-13T11:47:56.868Z,25.24
2022-09-13T11:48:56.924Z,25.24
2022-09-13T11:49:56.990Z,25.27
2022-09-13T11:50:57.074Z,25.15
2022-09-13T11:51:57.105Z,25.42
2022-09-13T11:52:57.181Z,25.24
2022-09-13T11:53:57.235Z,25.17
2022-09-13T11:54:57.314Z,24.80
2022-09-13T11:55:57.338Z,24.82
2022-09-13T11:56:57.397Z,24.91
2022-09-13T11:57:57.491Z,25.09
2022-09-13T11:58:57.511Z,25.09
2022-09-13T11:59:57.597Z,25.06
2022-09-13T12:00:57.627Z,25.42
2022-09-13T12:01:57.803Z,25.56
2022-09-13T12:02:57.919Z,25.56
2022-09-13T12:03:57.804Z,25.39
2022-09-13T12:05:18.401Z,25.37
2022-09-13T12:05:57.952Z,25.52
2022-09-13T12:06:57.980Z,25.52
2022-09-13T12:07:58.043Z,25.39
2022-09-13T12:08:58.097Z,25.24
2022-09-13T12:09:58.182Z,25.34
2022-09-13T12:10:58.237Z,25.54
2022-09-13T12:11:58.277Z,25.62
2022-09-13T12:12:58.350Z,25.98
2022-09-13T12:13:58.396Z,25.71
2022-09-13T12:14:58.464Z,25.72
2022-09-13T12:15:58.588Z,25.68
2022-09-13T12:16:58.648Z,25.50
2022-09-13T12:17:58.632Z,24.98
2022-09-13T12:18:58.690Z,24.83
2022-09-13T12:19:58.764Z,25.02
2022-09-13T12:20:58.846Z,25.05
2022-09-13T12:21:58.868Z,25.20
2022-09-13T12:22:58.929Z,25.64
2022-09-13T12:23:59.021Z,25.84
2022-09-13T12:24:59.854Z,25.69
2022-09-13T12:25:59.110Z,25.35
2022-09-13T12:26:59.194Z,25.47
2022-09-13T12:27:59.259Z,25.20
2022-09-13T12:28:59.290Z,25.07
2022-09-13T12:29:59.345Z,25.13
2022-09-13T12:30:59.428Z,24.98
2022-09-13T12:31:59.515Z,24.76
2022-09-13T12:32:59.555Z,24.63
2022-09-13T12:33:59.584Z,24.61
2022-09-13T12:34:59.666Z,24.60
2022-09-13T12:35:59.698Z,24.71
2022-09-13T12:36:59.758Z,24.83
2022-09-13T12:37:59.856Z,25.00
2022-09-13T12:38:59.873Z,25.06
2022-09-13T12:39:59.950Z,25.47
2022-09-13T12:40:59.989Z,25.82
2022-09-13T12:42:00.088Z,25.84
2022-09-13T12:43:00.114Z,25.87
2022-09-13T12:44:00.187Z,25.93
2022-09-13T12:45:00.225Z,26.31
2022-09-13T12:46:00.333Z,26.35
2022-09-13T12:47:00.362Z,26.18
2022-09-13T12:48:00.408Z,26.22
2022-09-13T12:49:00.532Z,26.57
2022-09-13T12:50:21.406Z,26.87
2022-09-13T12:51:00.653Z,26.87
2022-09-13T12:52:00.723Z,26.96
2022-09-13T12:53:00.752Z,27.11
2022-09-13T12:54:00.922Z,27.05
2022-09-13T12:55:00.898Z,27.09
2022-09-13T12:56:01.033Z,27.13
2022-09-13T12:57:01.091Z,27.28
2022-09-13T12:58:01.066Z,27.29
2022-09-13T12:59:01.260Z,27.33
2022-09-13T13:00:01.126Z,27.36
2022-09-13T13:01:01.302Z,27.32
2022-09-13T13:02:01.313Z,27.71